Time;durP1;ratioP1;P1;durP2;ratioP2;P2;SDS_P1;SDS_P2;PMS_P1;PMS_P2;Temp;Humidity;BMP_temperature;BMP_pressure;BME280_temperature;BME280_humidity;BME280_pressure;Samples;Min_cycle;Max_cycle;Signal;HPM_P1;HPM_P2
2023/07/18 00:01:52;;;;;;;2.47;1.30;;;;;;;;;;5032462;28;20225;-82
2023/07/18 00:04:18;;;;;;;2.37;1.80;;;;;;;;;;5032619;28;20406;-83
2023/07/18 00:06:45;;;;;;;3.10;1.30;;;;;;;;;;5031432;28;20178;-82
2023/07/18 00:09:11;;;;;;;1.70;1.17;;;;;;;;;;5032596;28;20167;-82
2023/07/18 00:11:37;;;;;;;3.83;1.27;;;;;;;;;;5032450;28;20415;-81
2023/07/18 00:14:03;;;;;;;3.40;1.33;;;;;;;;;;5032191;28;20918;-80
2023/07/18 00:16:28;;;;;;;2.77;1.57;;;;;;;;;;5032429;28;20472;-82
2023/07/18 00:18:55;;;;;;;2.63;1.90;;;;;;;;;;5032481;28;20412;-82
2023/07/18 00:21:20;;;;;;;2.93;1.03;;;;;;;;;;5032432;28;20652;-80
2023/07/18 00:23:47;;;;;;;2.93;1.47;;;;;;;;;;5032449;28;20409;-81
2023/07/18 00:26:13;;;;;;;3.50;1.73;;;;;;;;;;5032609;28;20429;-80
2023/07/18 00:28:39;;;;;;;2.30;1.53;;;;;;;;;;5032368;28;20409;-83
2023/07/18 00:31:05;;;;;;;2.57;1.80;;;;;;;;;;5032209;28;20768;-83
2023/07/18 00:33:31;;;;;;;4.57;2.00;;;;;;;;;;5032413;28;20915;-82
2023/07/18 00:35:57;;;;;;;3.30;1.50;;;;;;;;;;5031812;28;20522;-82
2023/07/18 00:38:22;;;;;;;5.03;3.33;;;;;;;;;;5036082;28;20425;-82
2023/07/18 00:40:49;;;;;;;3.37;1.73;;;;;;;;;;5035820;28;20181;-83
2023/07/18 00:43:15;;;;;;;4.00;2.47;;;;;;;;;;5035909;28;20777;-82
2023/07/18 00:45:44;;;;;;;3.70;2.40;;;;;;;;;;5035550;28;20420;-83
2023/07/18 00:48:11;;;;;;;5.80;2.70;;;;;;;;;;5035858;28;20416;-83
2023/07/18 00:50:37;;;;;;;3.67;2.07;;;;;;;;;;5035755;28;20416;-83
2023/07/18 00:53:04;;;;;;;4.60;2.47;;;;;;;;;;5035768;28;20847;-82
2023/07/18 00:55:30;;;;;;;4.90;2.37;;;;;;;;;;5035568;28;20451;-81
2023/07/18 00:57:56;;;;;;;3.80;2.20;;;;;;;;;;5035694;28;20512;-81
2023/07/18 01:00:22;;;;;;;4.53;2.57;;;;;;;;;;5035025;28;20457;-81
2023/07/18 01:02:49;;;;;;;4.37;2.77;;;;;;;;;;5035527;28;20413;-82
2023/07/18 01:05:19;;;;;;;5.13;3.17;;;;;;;;;;5035537;28;20417;-83
2023/07/18 01:07:46;;;;;;;3.20;2.37;;;;;;;;;;5035469;28;20419;-82
2023/07/18 01:10:12;;;;;;;3.40;1.97;;;;;;;;;;5035494;28;20444;-81
2023/07/18 01:12:38;;;;;;;5.33;2.40;;;;;;;;;;5035433;28;20415;-81
2023/07/18 01:15:04;;;;;;;4.40;1.60;;;;;;;;;;5035067;28;20423;-81
2023/07/18 01:17:31;;;;;;;2.77;1.40;;;;;;;;;;5035265;28;20479;-80
2023/07/18 01:19:58;;;;;;;2.47;1.33;;;;;;;;;;5033985;28;20897;-84
2023/07/18 01:22:24;;;;;;;2.90;1.60;;;;;;;;;;5035224;28;20456;-82
2023/07/18 01:24:50;;;;;;;3.37;1.50;;;;;;;;;;5035247;28;20411;-81
2023/07/18 01:27:15;;;;;;;3.20;1.50;;;;;;;;;;5035148;28;20777;-82
2023/07/18 01:29:41;;;;;;;1.80;1.37;;;;;;;;;;5034730;28;20231;-82
2023/07/18 01:32:07;;;;;;;3.50;1.50;;;;;;;;;;5035073;28;20170;-81
2023/07/18 01:34:34;;;;;;;7.03;2.40;;;;;;;;;;5034948;28;20174;-80
2023/07/18 01:37:00;;;;;;;3.43;1.77;;;;;;;;;;5034986;28;20518;-82
2023/07/18 01:39:26;;;;;;;3.33;2.03;;;;;;;;;;5034891;28;20405;-82
2023/07/18 01:41:52;;;;;;;3.70;2.13;;;;;;;;;;5034871;28;20186;-81
2023/07/18 01:44:18;;;;;;;3.10;1.60;;;;;;;;;;5034546;28;20467;-82
2023/07/18 01:46:44;;;;;;;4.83;1.90;;;;;;;;;;5034730;28;20769;-82
2023/07/18 01:49:11;;;;;;;2.30;1.30;;;;;;;;;;5034032;28;20953;-80
2023/07/18 01:51:37;;;;;;;3.43;1.70;;;;;;;;;;5034741;28;20463;-81
2023/07/18 01:54:04;;;;;;;5.73;2.47;;;;;;;;;;5034620;28;20404;-81
2023/07/18 01:56:29;;;;;;;4.47;1.83;;;;;;;;;;5034502;28;20976;-81
2023/07/18 01:58:55;;;;;;;3.60;1.83;;;;;;;;;;5034178;28;20470;-82
2023/07/18 02:01:21;;;;;;;3.90;2.90;;;;;;;;;;5034339;28;20224;-82
2023/07/18 02:03:47;;;;;;;5.70;2.60;;;;;;;;;;5034422;28;20177;-81
2023/07/18 02:06:13;;;;;;;3.87;2.53;;;;;;;;;;5034378;28;20213;-82
2023/07/18 02:08:39;;;;;;;4.93;2.27;;;;;;;;;;5034346;28;20445;-81
2023/07/18 02:11:05;;;;;;;4.00;2.20;;;;;;;;;;5034297;28;20496;-80
2023/07/18 02:13:31;;;;;;;4.37;2.03;;;;;;;;;;5032907;28;20427;-80
2023/07/18 02:15:57;;;;;;;4.50;1.70;;;;;;;;;;5033828;28;20453;-81
2023/07/18 02:18:22;;;;;;;2.77;1.57;;;;;;;;;;5034126;28;20807;-80
2023/07/18 02:20:48;;;;;;;5.00;2.00;;;;;;;;;;5034108;28;20221;-80
2023/07/18 02:23:14;;;;;;;3.07;2.00;;;;;;;;;;5034150;28;20413;-80
2023/07/18 02:25:40;;;;;;;4.87;2.50;;;;;;;;;;5034021;28;20678;-82
2023/07/18 02:28:07;;;;;;;9.53;2.70;;;;;;;;;;5033990;28;20421;-81
2023/07/18 02:30:33;;;;;;;3.97;2.53;;;;;;;;;;5033614;28;20167;-82
2023/07/18 02:32:59;;;;;;;5.87;2.83;;;;;;;;;;5032572;28;20475;-83
2023/07/18 02:35:26;;;;;;;3.50;3.03;;;;;;;;;;5033770;28;20431;-81
2023/07/18 02:37:52;;;;;;;5.63;3.23;;;;;;;;;;5033573;28;20480;-83
2023/07/18 02:40:18;;;;;;;4.53;3.27;;;;;;;;;;5033773;28;20411;-82
2023/07/18 02:42:44;;;;;;;4.70;2.00;;;;;;;;;;5033705;28;20181;-80
2023/07/18 02:45:10;;;;;;;5.23;2.37;;;;;;;;;;5033320;28;20409;-78
2023/07/18 02:47:36;;;;;;;4.63;2.97;;;;;;;;;;5033514;28;20443;-80
2023/07/18 02:50:02;;;;;;;5.10;2.97;;;;;;;;;;5033510;28;20414;-81
2023/07/18 02:52:28;;;;;;;4.57;3.17;;;;;;;;;;5033581;28;20417;-80
2023/07/18 02:54:54;;;;;;;5.90;2.77;;;;;;;;;;5033443;28;20476;-83
2023/07/18 02:57:20;;;;;;;3.00;2.13;;;;;;;;;;5033424;28;20982;-83
2023/07/18 02:59:46;;;;;;;4.80;2.33;;;;;;;;;;5032316;28;20200;-85
2023/07/18 03:02:12;;;;;;;4.80;2.97;;;;;;;;;;5033284;28;20494;-83
2023/07/18 03:04:38;;;;;;;7.07;2.63;;;;;;;;;;5033373;28;20173;-84
2023/07/18 03:07:05;;;;;;;4.00;2.43;;;;;;;;;;5033374;28;20419;-86
2023/07/18 03:09:34;;;;;;;5.90;3.30;;;;;;;;;;5032103;28;21125;-84
2023/07/18 03:12:00;;;;;;;5.10;3.53;;;;;;;;;;5033311;28;20421;-85
2023/07/18 03:14:26;;;;;;;7.70;3.73;;;;;;;;;;5032836;28;20411;-83
2023/07/18 03:16:52;;;;;;;5.37;3.30;;;;;;;;;;5033095;28;20583;-83
2023/07/18 03:19:18;;;;;;;5.20;3.00;;;;;;;;;;5033108;28;20964;-83
2023/07/18 03:21:44;;;;;;;5.07;2.77;;;;;;;;;;5033150;28;20511;-81
2023/07/18 03:24:10;;;;;;;5.70;4.50;;;;;;;;;;5033189;28;20421;-82
2023/07/18 03:26:39;;;;;;;4.50;3.50;;;;;;;;;;5031823;28;20427;-80
2023/07/18 03:29:05;;;;;;;5.60;4.20;;;;;;;;;;5032744;28;20957;-82
2023/07/18 03:31:32;;;;;;;7.80;3.77;;;;;;;;;;5032970;28;20408;-80
2023/07/18 03:33:58;;;;;;;7.60;2.57;;;;;;;;;;5033009;28;20413;-81
2023/07/18 03:36:24;;;;;;;6.87;3.97;;;;;;;;;;5031644;28;20469;-81
2023/07/18 03:38:50;;;;;;;5.80;3.07;;;;;;;;;;5031664;28;20432;-82
2023/07/18 03:41:16;;;;;;;8.60;3.67;;;;;;;;;;5031529;28;20801;-81
2023/07/18 03:43:42;;;;;;;7.40;3.73;;;;;;;;;;5032500;28;20428;-81
2023/07/18 03:46:08;;;;;;;8.43;5.13;;;;;;;;;;5032898;28;20174;-82
2023/07/18 03:48:34;;;;;;;5.90;4.63;;;;;;;;;;5032887;28;20419;-82
2023/07/18 03:51:04;;;;;;;8.60;5.70;;;;;;;;;;5032833;28;20422;-81
2023/07/18 03:53:30;;;;;;;11.00;4.93;;;;;;;;;;5032830;28;20412;-81
2023/07/18 03:56:01;;;;;;;8.90;5.67;;;;;;;;;;5032676;28;20519;-81
2023/07/18 03:58:27;;;;;;;11.13;6.43;;;;;;;;;;5031187;28;20519;-84
2023/07/18 04:00:56;;;;;;;6.53;5.63;;;;;;;;;;5032508;28;20479;-82
2023/07/18 04:03:22;;;;;;;10.60;6.10;;;;;;;;;;5032668;28;20178;-83
2023/07/18 04:05:49;;;;;;;8.47;5.87;;;;;;;;;;5032594;28;20483;-81
2023/07/18 04:08:18;;;;;;;8.00;5.40;;;;;;;;;;5031289;28;20500;-83
2023/07/18 04:10:44;;;;;;;9.27;5.93;;;;;;;;;;5033088;28;20483;-82
2023/07/18 04:13:10;;;;;;;6.87;5.37;;;;;;;;;;5036447;28;20414;-81
2023/07/18 04:15:36;;;;;;;10.53;5.90;;;;;;;;;;5036134;28;20421;-82
2023/07/18 04:18:02;;;;;;;8.70;6.13;;;;;;;;;;5036464;28;20420;-84
2023/07/18 04:20:28;;;;;;;10.83;6.63;;;;;;;;;;5036305;28;20780;-83
2023/07/18 04:22:54;;;;;;;8.50;6.70;;;;;;;;;;5036368;28;20178;-83
2023/07/18 04:25:20;;;;;;;8.47;5.77;;;;;;;;;;5036342;28;20419;-83
2023/07/18 04:27:47;;;;;;;8.03;5.77;;;;;;;;;;5036211;28;20419;-82
2023/07/18 04:30:13;;;;;;;8.83;5.47;;;;;;;;;;5035938;28;20831;-81
2023/07/18 04:32:41;;;;;;;13.20;6.50;;;;;;;;;;5036117;28;20493;-81
2023/07/18 04:35:07;;;;;;;12.20;6.87;;;;;;;;;;5034771;28;20423;-84
2023/07/18 04:37:33;;;;;;;12.77;5.83;;;;;;;;;;5036019;28;20467;-81
2023/07/18 04:39:59;;;;;;;9.87;5.20;;;;;;;;;;5036095;28;20419;-84
2023/07/18 04:42:25;;;;;;;8.93;5.60;;;;;;;;;;5036042;28;20172;-81
2023/07/18 04:44:51;;;;;;;11.23;6.47;;;;;;;;;;5035687;28;20176;-82
2023/07/18 04:47:17;;;;;;;9.23;6.10;;;;;;;;;;5035927;28;20906;-82
2023/07/18 04:49:43;;;;;;;7.00;5.53;;;;;;;;;;5035956;28;20182;-82
2023/07/18 04:52:09;;;;;;;10.50;6.43;;;;;;;;;;5045951;28;20923;-85
2023/07/18 04:54:37;;;;;;;10.73;6.20;;;;;;;;;;5055504;28;20176;-87
2023/07/18 04:57:03;;;;;;;8.53;5.90;;;;;;;;;;5055456;28;20212;-85
2023/07/18 04:59:29;;;;;;;11.67;7.00;;;;;;;;;;5054011;28;21002;-84
2023/07/18 05:01:55;;;;;;;12.03;7.53;;;;;;;;;;5055344;28;20595;-83
2023/07/18 05:04:21;;;;;;;10.20;5.80;;;;;;;;;;5055524;28;20509;-82
2023/07/18 05:06:48;;;;;;;11.03;6.10;;;;;;;;;;5055529;28;20529;-84
2023/07/18 05:09:14;;;;;;;6.77;5.03;;;;;;;;;;5055426;28;20419;-85
2023/07/18 05:11:40;;;;;;;11.47;6.33;;;;;;;;;;5055302;28;20472;-85
2023/07/18 05:14:06;;;;;;;21.43;6.80;;;;;;;;;;5055009;28;20575;-84
2023/07/18 05:16:32;;;;;;;12.07;4.87;;;;;;;;;;5053901;28;20206;-83
2023/07/18 05:18:57;;;;;;;9.00;5.90;;;;;;;;;;5055281;28;20225;-87
2023/07/18 05:21:23;;;;;;;10.77;4.57;;;;;;;;;;5055238;28;20886;-83
2023/07/18 05:23:50;;;;;;;17.00;6.57;;;;;;;;;;5054025;28;20197;-83
2023/07/18 05:26:21;;;;;;;10.43;5.17;;;;;;;;;;5055050;28;20200;-86
2023/07/18 05:28:48;;;;;;;9.57;5.70;;;;;;;;;;5054678;28;20420;-82
2023/07/18 05:31:14;;;;;;;9.87;5.30;;;;;;;;;;5053771;28;20428;-82
2023/07/18 05:33:40;;;;;;;10.53;5.60;;;;;;;;;;5054974;28;20434;-82
2023/07/18 05:36:06;;;;;;;8.57;5.13;;;;;;;;;;5054820;28;20454;-81
2023/07/18 05:38:32;;;;;;;8.50;5.50;;;;;;;;;;5054897;28;20175;-83
2023/07/18 05:40:58;;;;;;;10.60;5.40;;;;;;;;;;5054882;28;20411;-82
2023/07/18 05:43:24;;;;;;;10.67;5.60;;;;;;;;;;5054374;28;20485;-82
2023/07/18 05:45:50;;;;;;;10.67;5.47;;;;;;;;;;5054615;28;20179;-84
2023/07/18 05:48:16;;;;;;;9.10;4.67;;;;;;;;;;5054661;28;20416;-80
2023/07/18 05:50:42;;;;;;;8.37;5.60;;;;;;;;;;5053930;28;20414;-83
2023/07/18 05:53:07;;;;;;;8.53;5.20;;;;;;;;;;5054273;28;20413;-82
2023/07/18 05:55:33;;;;;;;8.13;4.50;;;;;;;;;;5054564;28;20405;-81
2023/07/18 05:57:59;;;;;;;7.80;5.00;;;;;;;;;;5054453;28;20215;-81
2023/07/18 06:00:25;;;;;;;13.33;4.43;;;;;;;;;;5053855;28;20959;-78
2023/07/18 06:02:51;;;;;;;9.37;4.80;;;;;;;;;;5054462;28;20427;-78
2023/07/18 06:05:17;;;;;;;6.27;4.67;;;;;;;;;;5054470;28;20414;-81
2023/07/18 06:07:43;;;;;;;6.03;3.97;;;;;;;;;;5054330;28;20187;-82
2023/07/18 06:10:09;;;;;;;12.70;4.20;;;;;;;;;;5054316;28;20469;-81
2023/07/18 06:12:36;;;;;;;8.53;3.73;;;;;;;;;;5054232;28;20199;-81
2023/07/18 06:15:02;;;;;;;11.70;3.40;;;;;;;;;;5052566;28;20991;-82
2023/07/18 06:17:28;;;;;;;5.90;3.30;;;;;;;;;;5054110;28;20572;-81
2023/07/18 06:19:54;;;;;;;9.73;4.00;;;;;;;;;;5054111;28;20413;-81
2023/07/18 06:22:20;;;;;;;6.57;3.87;;;;;;;;;;5054017;28;20416;-80
2023/07/18 06:24:47;;;;;;;7.87;3.80;;;;;;;;;;5054139;28;20168;-80
2023/07/18 06:27:13;;;;;;;6.20;3.53;;;;;;;;;;5053985;28;20420;-82
2023/07/18 06:29:39;;;;;;;6.87;3.47;;;;;;;;;;5053523;28;20434;-82
2023/07/18 06:32:05;;;;;;;6.70;3.40;;;;;;;;;;5053891;28;20443;-81
2023/07/18 06:34:33;;;;;;;8.53;3.10;;;;;;;;;;5053640;28;20176;-83
2023/07/18 06:37:01;;;;;;;12.00;4.00;;;;;;;;;;5053733;28;20470;-81
2023/07/18 06:39:29;;;;;;;6.77;4.50;;;;;;;;;;5053717;28;20419;-80
2023/07/18 06:41:54;;;;;;;7.77;2.40;;;;;;;;;;5053748;28;20408;-80
2023/07/18 06:44:23;;;;;;;8.00;2.97;;;;;;;;;;5053350;28;20465;-81
2023/07/18 06:46:50;;;;;;;8.37;2.83;;;;;;;;;;5053715;28;20176;-80
2023/07/18 06:49:18;;;;;;;9.57;4.20;;;;;;;;;;5053596;28;20407;-81
2023/07/18 06:51:44;;;;;;;8.50;2.97;;;;;;;;;;5053502;28;20901;-81
2023/07/18 06:54:13;;;;;;;5.27;2.97;;;;;;;;;;5053475;28;20906;-81
2023/07/18 06:56:40;;;;;;;8.80;2.93;;;;;;;;;;5053388;28;20557;-82
2023/07/18 06:59:06;;;;;;;7.30;2.43;;;;;;;;;;5053112;28;20399;-81
2023/07/18 07:01:33;;;;;;;5.00;1.77;;;;;;;;;;5051838;28;20477;-81
2023/07/18 07:03:59;;;;;;;6.80;2.10;;;;;;;;;;5053383;28;20405;-80
2023/07/18 07:06:25;;;;;;;5.33;2.47;;;;;;;;;;5053272;28;20404;-82
2023/07/18 07:08:51;;;;;;;2.57;1.47;;;;;;;;;;5052000;28;20648;-82
2023/07/18 07:11:17;;;;;;;8.47;2.50;;;;;;;;;;5053215;28;20412;-79
2023/07/18 07:13:44;;;;;;;3.40;1.43;;;;;;;;;;5052803;28;20860;-79
2023/07/18 07:16:10;;;;;;;7.07;2.30;;;;;;;;;;5053115;28;20291;-82
2023/07/18 07:18:36;;;;;;;4.20;2.23;;;;;;;;;;5053060;28;20427;-80
2023/07/18 07:21:02;;;;;;;3.83;1.50;;;;;;;;;;5053088;28;20249;-80
2023/07/18 07:23:28;;;;;;;5.33;2.70;;;;;;;;;;5051798;28;20477;-81
2023/07/18 07:25:54;;;;;;;5.80;1.63;;;;;;;;;;5051779;28;20432;-82
2023/07/18 07:28:22;;;;;;;4.40;1.30;;;;;;;;;;5052721;28;20204;-79
2023/07/18 07:30:48;;;;;;;4.50;1.50;;;;;;;;;;5052975;28;20412;-82
2023/07/18 07:33:14;;;;;;;8.10;1.53;;;;;;;;;;5052685;28;20412;-80
2023/07/18 07:35:40;;;;;;;6.03;2.00;;;;;;;;;;5052813;28;20850;-79
2023/07/18 07:38:06;;;;;;;5.00;1.27;;;;;;;;;;5052826;28;20688;-79
2023/07/18 07:40:32;;;;;;;6.73;1.43;;;;;;;;;;5052762;28;20622;-80
2023/07/18 07:42:58;;;;;;;5.83;1.37;;;;;;;;;;5051204;28;20419;-80
2023/07/18 07:45:25;;;;;;;6.73;1.33;;;;;;;;;;5052786;28;20404;-80
2023/07/18 07:47:51;;;;;;;4.30;1.57;;;;;;;;;;5056956;28;20450;-81
2023/07/18 07:50:17;;;;;;;4.70;1.67;;;;;;;;;;5056941;28;20440;-82
2023/07/18 07:52:43;;;;;;;3.00;1.33;;;;;;;;;;5056836;28;20177;-81
2023/07/18 07:55:14;;;;;;;3.50;1.00;;;;;;;;;;5056928;28;20469;-79
2023/07/18 07:57:40;;;;;;;2.97;1.30;;;;;;;;;;5056731;28;20463;-80
2023/07/18 08:00:07;;;;;;;5.70;1.07;;;;;;;;;;5056265;28;20430;-79
2023/07/18 08:02:33;;;;;;;5.87;1.47;;;;;;;;;;5055604;28;20206;-79
2023/07/18 08:04:58;;;;;;;5.70;1.10;;;;;;;;;;5056674;28;20444;-79
2023/07/18 08:07:24;;;;;;;3.20;0.67;;;;;;;;;;5056754;28;20193;-83
2023/07/18 08:09:50;;;;;;;3.17;1.20;;;;;;;;;;5055400;28;20174;-80
2023/07/18 08:12:16;;;;;;;3.83;1.70;;;;;;;;;;5056683;28;20189;-83
2023/07/18 08:14:43;;;;;;;3.77;1.47;;;;;;;;;;5056153;28;20599;-81
2023/07/18 08:17:09;;;;;;;3.30;1.03;;;;;;;;;;5056380;28;20471;-81
2023/07/18 08:19:35;;;;;;;6.07;1.07;;;;;;;;;;5056440;28;20403;-81
2023/07/18 08:22:08;;;;;;;3.10;1.20;;;;;;;;;;5056439;28;20174;-81
2023/07/18 08:24:34;;;;;;;4.30;1.23;;;;;;;;;;5056450;28;20404;-82
2023/07/18 08:27:00;;;;;;;3.47;0.97;;;;;;;;;;5056288;28;20458;-80
2023/07/18 08:29:30;;;;;;;3.37;1.37;;;;;;;;;;5054494;28;20170;-81
2023/07/18 08:31:56;;;;;;;2.80;0.90;;;;;;;;;;5056165;28;20638;-81
2023/07/18 08:34:22;;;;;;;4.03;1.00;;;;;;;;;;5056092;28;20400;-81
2023/07/18 08:36:48;;;;;;;4.17;2.43;;;;;;;;;;5056061;28;20522;-80
2023/07/18 08:39:20;;;;;;;3.90;1.50;;;;;;;;;;5054891;28;20440;-81
2023/07/18 08:41:51;;;;;;;4.50;1.10;;;;;;;;;;5055961;28;20277;-82
2023/07/18 08:44:17;;;;;;;3.87;1.30;;;;;;;;;;5055800;28;20783;-81
2023/07/18 08:46:47;;;;;;;3.00;0.70;;;;;;;;;;5055922;28;20416;-81
2023/07/18 08:49:16;;;;;;;2.17;0.73;;;;;;;;;;5055823;28;20520;-79
2023/07/18 08:51:43;;;;;;;2.03;0.53;;;;;;;;;;5055843;28;20417;-81
2023/07/18 08:54:09;;;;;;;3.50;0.73;;;;;;;;;;5055830;28;20416;-82
2023/07/18 08:56:35;;;;;;;3.57;1.23;;;;;;;;;;5055577;28;20466;-80
2023/07/18 08:59:01;;;;;;;3.60;1.33;;;;;;;;;;5055420;28;20420;-80
2023/07/18 09:01:27;;;;;;;4.77;1.00;;;;;;;;;;5055391;28;20217;-82
2023/07/18 09:03:56;;;;;;;2.97;0.67;;;;;;;;;;5055599;28;20495;-82
2023/07/18 09:06:23;;;;;;;4.37;1.17;;;;;;;;;;5055551;28;20165;-80
2023/07/18 09:08:49;;;;;;;3.53;1.10;;;;;;;;;;5055411;28;20411;-81
2023/07/18 09:11:19;;;;;;;2.70;0.70;;;;;;;;;;5055453;28;20778;-82
2023/07/18 09:13:45;;;;;;;3.97;0.93;;;;;;;;;;5055041;28;20938;-82
2023/07/18 09:16:12;;;;;;;4.07;0.73;;;;;;;;;;5055310;28;20543;-80
2023/07/18 09:18:51;;;;;;;3.10;0.80;;;;;;;;;;5055396;28;20257;-83
2023/07/18 09:21:16;;;;;;;3.60;1.07;;;;;;;;;;5055215;28;20418;-83
2023/07/18 09:23:43;;;;;;;4.30;0.50;;;;;;;;;;5055150;28;20488;-83
2023/07/18 09:26:13;;;;;;;2.40;0.67;;;;;;;;;;5053913;28;20178;-83
2023/07/18 09:28:39;;;;;;;3.13;0.73;;;;;;;;;;5053489;28;20428;-82
2023/07/18 09:31:19;;;;;;;1.67;0.27;;;;;;;;;;5053872;28;20931;-85
2023/07/18 09:33:49;;;;;;;1.60;0.40;;;;;;;;;;5054983;28;20416;-81
2023/07/18 09:36:19;;;;;;;1.73;0.53;;;;;;;;;;5054804;28;20460;-80
2023/07/18 09:38:49;;;;;;;2.93;0.90;;;;;;;;;;5054870;28;20502;-83
2023/07/18 09:41:18;;;;;;;2.10;0.47;;;;;;;;;;5054860;28;20439;-84
2023/07/18 09:43:44;;;;;;;3.03;0.60;;;;;;;;;;5054471;28;20438;-83
2023/07/18 09:46:12;;;;;;;2.37;0.80;;;;;;;;;;5054782;28;20445;-81
2023/07/18 09:48:39;;;;;;;1.83;0.50;;;;;;;;;;5054789;28;20419;-83
2023/07/18 09:51:08;;;;;;;1.83;0.50;;;;;;;;;;5054622;28;20510;-83
2023/07/18 09:53:37;;;;;;;2.80;0.60;;;;;;;;;;5054602;28;20416;-85
2023/07/18 09:56:05;;;;;;;5.03;0.77;;;;;;;;;;5054533;28;20404;-82
2023/07/18 09:58:35;;;;;;;1.67;0.33;;;;;;;;;;5052871;28;20535;-82
2023/07/18 10:01:00;;;;;;;1.17;0.50;;;33.50;1.00;;;;;;5053025;28;20527;-81
2023/07/18 10:03:28;;;;;;;2.67;0.80;;;33.90;99.90;;;;;;5054452;28;20428;-84
2023/07/18 10:05:54;;;;;;;2.97;0.53;;;33.80;99.90;;;;;;5054425;28;20712;-84
2023/07/18 10:08:20;;;;;;;1.63;0.30;;;33.40;99.90;;;;;;5053981;28;20428;-83
2023/07/18 10:11:00;;;;;;;1.63;0.70;;;32.80;99.90;;;;;;5054273;28;20513;-82
2023/07/18 10:13:25;;;;;;;1.30;0.33;;;32.20;99.90;;;;;;5053894;28;20420;-81
2023/07/18 10:16:27;;;;;;;2.90;0.90;;;31.80;99.90;;;;;;5053900;28;20932;-82
2023/07/18 10:18:52;;;;;;;3.10;1.50;;;31.70;99.90;;;;;;4992746;28;20382;-83
2023/07/18 10:21:32;;;;;;;2.43;0.73;;;31.70;99.90;;;;;;5041530;28;20794;-81
2023/07/18 10:24:20;;;;;;;2.87;0.47;;;32.00;99.90;;;;;;5054115;28;20260;-83
2023/07/18 10:26:55;;;;;;;4.10;0.43;;;32.60;99.90;;;;;;5052733;28;20452;-82
2023/07/18 10:29:21;;;;;;;1.43;0.43;;;32.90;99.90;;;;;;5052389;28;20431;-82
2023/07/18 10:31:52;;;;;;;3.17;0.40;;;33.40;99.90;;;;;;5053827;28;20797;-80
2023/07/18 10:34:18;;;;;;;1.90;0.60;;;33.80;99.90;;;;;;5052552;28;20622;-81
2023/07/18 10:36:56;;;;;;;2.20;0.67;;;33.40;99.90;;;;;;5053678;28;20551;-80
2023/07/18 10:39:43;;;;;;;2.90;0.67;;;32.90;99.90;;;;;;5053673;28;20165;-81
2023/07/18 10:42:26;;;;;;;1.27;0.33;;;32.10;99.90;;;;;;5053757;28;20416;-81
2023/07/18 10:44:59;;;;;;;1.47;0.30;;;32.00;99.90;;;;;;5053718;28;20484;-82
2023/07/18 10:47:26;;;;;;;1.13;0.40;;;31.60;99.90;;;;;;5053713;28;20409;-81
2023/07/18 10:49:52;;;;;;;1.40;0.50;;;31.20;99.90;;;;;;5053629;28;20413;-81
2023/07/18 10:52:19;;;;;;;3.83;1.10;;;31.40;99.90;;;;;;5053618;28;20424;-80
2023/07/18 10:54:49;;;;;;;1.97;0.37;;;31.90;99.90;;;;;;5052188;28;20928;-82
2023/07/18 10:57:15;;;;;;;2.30;0.60;;;32.60;99.90;;;;;;5052536;28;20467;-83
2023/07/18 10:59:47;;;;;;;1.63;0.40;;;33.20;99.90;;;;;;5043585;28;20457;-79
2023/07/18 11:02:12;;;;;;;2.40;0.57;;;33.40;99.90;;;;;;5046739;28;20468;-80
2023/07/18 11:04:38;;;;;;;0.80;0.30;;;33.40;99.90;;;;;;5041663;28;20473;-81
2023/07/18 11:07:04;;;;;;;1.87;0.60;;;33.50;99.90;;;;;;5043375;28;20177;-82
2023/07/18 11:09:31;;;;;;;3.07;0.47;;;33.60;99.90;;;;;;5042014;28;20174;-80
2023/07/18 11:11:57;;;;;;;1.53;0.50;;;34.10;99.90;;;;;;5046004;28;20281;-81
2023/07/18 11:14:23;;;;;;;3.57;0.57;;;34.10;99.90;;;;;;5046974;28;20424;-81
2023/07/18 11:16:48;;;;;;;2.83;0.63;;;33.90;99.90;;;;;;5035070;28;20217;-82
2023/07/18 11:19:15;;;;;;;2.23;0.37;;;33.30;99.90;;;;;;5032756;28;20790;-80
2023/07/18 11:21:41;;;;;;;2.60;0.50;;;33.20;99.90;;;;;;5031795;28;20232;-83
2023/07/18 11:24:10;;;;;;;0.87;0.20;;;32.90;99.90;;;;;;5031250;28;20421;-84
2023/07/18 11:26:35;;;;;;;1.73;0.53;;;33.00;99.90;;;;;;5032796;28;20489;-83
2023/07/18 11:29:01;;;;;;;2.20;0.73;;;32.90;99.90;;;;;;5032358;28;20433;-81
2023/07/18 11:31:32;;;;;;;1.30;0.33;;;32.50;99.90;;;;;;5031325;28;20685;-81
2023/07/18 11:34:00;;;;;;;2.93;0.60;;;31.80;99.90;;;;;;5031385;28;20282;-80
2023/07/18 11:36:35;;;;;;;2.90;0.60;;;31.40;99.90;;;;;;5032589;28;20455;-81
2023/07/18 11:39:01;;;;;;;1.63;0.50;;;31.20;99.90;;;;;;5032723;28;20831;-81
2023/07/18 11:41:32;;;;;;;2.03;0.40;;;31.30;99.90;;;;;;5032482;28;20448;-82
2023/07/18 11:43:58;;;;;;;1.40;0.40;;;31.40;99.90;;;;;;5032173;28;20417;-81
2023/07/18 11:46:44;;;;;;;2.60;0.60;;;31.40;99.90;;;;;;5032715;28;20451;-81
2023/07/18 11:49:17;;;;;;;6.30;0.80;;;31.00;99.90;;;;;;5032510;28;20580;-81
2023/07/18 11:51:46;;;;;;;3.07;0.60;;;30.70;99.90;;;;;;5038689;28;20491;-80
2023/07/18 11:54:12;;;;;;;1.27;0.30;;;30.70;99.90;;;;;;5052065;28;20987;-80
2023/07/18 11:56:38;;;;;;;2.40;0.30;;;31.30;99.90;;;;;;5052359;28;20540;-82
2023/07/18 11:59:04;;;;;;;2.47;0.70;;;32.20;99.90;;;;;;5051661;28;20182;-81
2023/07/18 12:01:33;;;;;;;1.40;0.40;;;32.90;99.90;;;;;;5051950;28;20259;-82
2023/07/18 12:04:09;;;;;;;1.03;0.30;;;33.20;99.90;;;;;;5052079;28;20185;-81
2023/07/18 12:06:35;;;;;;;2.47;0.50;;;33.40;99.90;;;;;;5052107;28;20431;-82
2023/07/18 12:09:04;;;;;;;1.43;0.67;;;33.70;99.90;;;;;;5052177;28;20427;-81
2023/07/18 12:11:29;;;;;;;2.20;0.67;;;33.60;99.90;;;;;;5052087;28;20170;-82
2023/07/18 12:13:55;;;;;;;1.57;0.30;;;33.30;99.90;;;;;;5051909;28;20424;-84
2023/07/18 12:16:23;;;;;;;1.70;0.70;;;32.80;99.90;;;;;;5052213;28;20213;-81
2023/07/18 12:18:48;;;;;;;2.77;0.70;;;32.30;99.90;;;;;;5050883;28;20193;-81
2023/07/18 12:21:14;;;;;;;2.67;0.60;;;31.90;99.90;;;;;;5050615;28;20569;-82
2023/07/18 12:23:40;;;;;;;4.10;1.13;;;31.60;99.90;;;;;;5051926;28;20543;-82
2023/07/18 12:26:05;;;;;;;6.07;0.43;;;31.40;99.90;;;;;;5050862;28;20174;-81
2023/07/18 12:28:31;;;;;;;2.83;0.37;;;31.20;99.90;;;;;;5051572;28;20182;-82
2023/07/18 12:30:56;;;;;;;2.13;0.50;;;30.70;99.90;;;;;;5050836;28;20197;-83
2023/07/18 12:33:23;;;;;;;1.20;0.30;;;30.20;99.90;;;;;;5055033;28;20177;-82
2023/07/18 12:35:49;;;;;;;1.43;0.30;;;29.70;99.90;;;;;;5055722;28;20281;-80
2023/07/18 12:38:18;;;;;;;1.50;0.20;;;29.40;99.90;;;;;;5054395;28;20574;-83
2023/07/18 12:40:44;;;;;;;3.13;0.50;;;29.10;99.90;;;;;;5055696;28;20414;-81
2023/07/18 12:43:10;;;;;;;1.10;0.30;;;28.80;99.90;;;;;;5054672;28;20527;-79
2023/07/18 12:45:35;;;;;;;1.70;0.30;;;28.80;99.90;;;;;;5055906;28;20491;-81
2023/07/18 12:48:01;;;;;;;1.33;0.30;;;29.10;99.90;;;;;;5040961;28;20182;-81
2023/07/18 12:50:26;;;;;;;1.77;0.50;;;29.30;99.90;;;;;;5035685;28;20511;-80
2023/07/18 12:52:52;;;;;;;1.33;0.30;;;29.30;99.90;;;;;;5035710;28;20611;-80
2023/07/18 12:55:17;;;;;;;1.40;0.37;;;29.20;99.90;;;;;;5035798;28;20197;-82
2023/07/18 12:57:43;;;;;;;2.00;0.57;;;29.00;99.90;;;;;;5034950;28;20694;-80
2023/07/18 13:00:09;;;;;;;1.40;0.30;;;28.80;99.90;;;;;;5035501;28;20224;-80
2023/07/18 13:02:35;;;;;;;2.83;0.30;;;28.70;99.90;;;;;;5035570;28;20236;-81
2023/07/18 13:05:03;;;;;;;2.33;0.30;;;28.70;99.90;;;;;;5035563;28;20808;-82
2023/07/18 13:07:29;;;;;;;1.43;0.30;;;28.60;99.90;;;;;;5035525;28;20182;-81
2023/07/18 13:09:54;;;;;;;2.30;0.30;;;28.50;99.90;;;;;;5035339;28;20984;-82
2023/07/18 13:12:20;;;;;;;2.40;0.47;;;28.50;99.90;;;;;;5033810;28;20193;-81
2023/07/18 13:14:45;;;;;;;2.27;0.30;;;29.10;99.90;;;;;;5033052;28;20193;-81
2023/07/18 13:17:11;;;;;;;2.70;0.40;;;30.00;99.90;;;;;;5034820;28;20220;-83
2023/07/18 13:19:36;;;;;;;1.57;0.27;;;31.00;99.90;;;;;;5034940;28;20654;-82
2023/07/18 13:22:02;;;;;;;2.30;0.53;;;31.90;99.90;;;;;;5033749;28;20181;-81
2023/07/18 13:24:27;;;;;;;1.80;0.60;;;32.80;99.90;;;;;;5037514;28;20256;-82
2023/07/18 13:26:53;;;;;;;3.53;0.50;;;33.50;99.90;;;;;;5051692;28;20189;-82
2023/07/18 13:29:19;;;;;;;1.40;0.40;;;33.70;99.90;;;;;;5053215;28;20193;-81
2023/07/18 13:31:47;;;;;;;2.43;0.50;;;33.60;99.90;;;;;;5054984;28;20253;-82
2023/07/18 13:34:13;;;;;;;2.23;0.50;;;33.10;99.90;;;;;;5053615;28;20170;-82
2023/07/18 13:36:38;;;;;;;1.10;0.30;;;32.60;99.90;;;;;;5053260;28;20474;-82
2023/07/18 13:39:03;;;;;;;2.20;0.47;;;32.00;99.90;;;;;;5055025;28;20170;-82
2023/07/18 13:41:29;;;;;;;2.10;0.50;;;31.30;99.90;;;;;;5036697;28;20661;-82
2023/07/18 13:43:54;;;;;;;1.40;0.40;;;31.00;99.90;;;;;;5033961;28;20171;-81
2023/07/18 13:46:20;;;;;;;1.70;0.50;;;30.60;99.90;;;;;;5034925;28;20205;-81
2023/07/18 13:48:45;;;;;;;2.63;0.60;;;30.20;99.90;;;;;;5033634;28;20178;-81
2023/07/18 13:51:11;;;;;;;3.10;0.70;;;29.80;99.90;;;;;;5034754;28;20249;-81
2023/07/18 13:53:37;;;;;;;1.27;0.70;;;29.40;99.90;;;;;;5034789;28;20629;-80
2023/07/18 13:56:03;;;;;;;1.13;0.50;;;29.20;99.90;;;;;;5043560;28;20166;-81
2023/07/18 13:58:28;;;;;;;1.97;0.40;;;28.90;99.90;;;;;;5035192;28;20512;-81
2023/07/18 14:00:54;;;;;;;2.63;0.50;;;28.70;99.90;;;;;;5034388;28;20638;-81
2023/07/18 14:03:19;;;;;;;2.33;0.60;;;28.40;99.90;;;;;;5034588;28;20197;-81